createdAt,value
2023-01-25T00:02:58.119Z,87.35
2023-01-25T00:06:08.666Z,87.96
2023-01-25T00:09:18.786Z,87.82
2023-01-25T00:12:27.176Z,87.67
2023-01-25T00:15:35.445Z,88.48
2023-01-25T00:18:45.610Z,88.54
2023-01-25T00:21:53.864Z,88.95
2023-01-25T00:25:02.246Z,88.14
2023-01-25T00:28:10.722Z,88.44
2023-01-25T00:31:29.837Z,87.87
2023-01-25T00:34:57.945Z,87.32
2023-01-25T00:38:29.211Z,86.82
2023-01-25T00:41:37.690Z,87.86
2023-01-25T00:44:46.825Z,87.30
2023-01-25T00:47:56.912Z,87.39
2023-01-25T00:51:07.033Z,87.76
2023-01-25T00:54:15.266Z,87.46
2023-01-25T00:57:23.745Z,86.52
2023-01-25T01:00:31.960Z,86.95
2023-01-25T01:03:40.470Z,87.70
2023-01-25T01:06:50.613Z,86.99
2023-01-25T01:10:00.515Z,87.99
2023-01-25T01:13:09.539Z,88.38
2023-01-25T01:16:17.750Z,87.50
2023-01-25T01:19:26.566Z,87.57
2023-01-25T01:22:36.429Z,87.25
2023-01-25T01:25:44.735Z,87.13
2023-01-25T01:28:53.135Z,86.43
2023-01-25T01:32:01.593Z,86.49
2023-01-25T01:35:11.076Z,87.36
2023-01-25T01:38:21.500Z,87.54
2023-01-25T01:41:29.931Z,86.87
2023-01-25T01:44:47.776Z,87.27
2023-01-25T01:47:56.739Z,87.05
2023-01-25T01:51:17.583Z,86.82
2023-01-25T01:54:37.607Z,86.94
2023-01-25T01:57:53.746Z,87.22
2023-01-25T02:01:02.549Z,87.40
2023-01-25T02:04:12.842Z,88.11
2023-01-25T02:07:28.879Z,87.44
2023-01-25T02:10:42.343Z,87.87
2023-01-25T02:13:54.289Z,86.94
2023-01-25T02:17:03.050Z,86.42
2023-01-25T02:20:24.810Z,87.38
2023-01-25T02:23:48.409Z,86.52
2023-01-25T02:26:58.502Z,87.10
2023-01-25T02:30:09.015Z,86.70
2023-01-25T02:33:17.827Z,86.51
2023-01-25T02:36:29.886Z,86.49
2023-01-25T02:39:39.429Z,86.88
2023-01-25T02:42:49.309Z,86.58
2023-01-25T02:46:10.922Z,87.10
2023-01-25T02:49:20.453Z,86.53
2023-01-25T02:52:30.101Z,85.98
2023-01-25T02:55:39.493Z,86.67
2023-01-25T02:58:52.419Z,85.91
2023-01-25T03:02:02.302Z,86.50
2023-01-25T03:05:12.260Z,86.42
2023-01-25T03:08:20.547Z,85.78
2023-01-25T03:11:32.116Z,86.00
2023-01-25T03:14:44.516Z,86.37
2023-01-25T03:17:53.087Z,86.05
2023-01-25T03:21:07.985Z,85.42
2023-01-25T03:24:16.323Z,86.36
2023-01-25T03:27:30.614Z,86.64
2023-01-25T03:30:55.694Z,86.42
2023-01-25T03:34:03.962Z,86.11
2023-01-25T03:37:17.219Z,87.07
2023-01-25T03:40:25.701Z,86.46
2023-01-25T03:43:34.668Z,86.76
2023-01-25T03:46:45.019Z,87.01
2023-01-25T03:49:53.336Z,87.21
2023-01-25T03:53:07.103Z,87.12
2023-01-25T03:56:20.285Z,87.70
2023-01-25T03:59:45.326Z,87.21
2023-01-25T04:02:55.204Z,86.60
2023-01-25T04:06:04.377Z,87.79
2023-01-25T04:09:14.821Z,86.99
2023-01-25T04:12:30.911Z,87.87
2023-01-25T04:15:39.638Z,86.85
2023-01-25T04:18:57.979Z,87.14
2023-01-25T04:22:08.981Z,87.51
2023-01-25T04:25:20.855Z,87.03
2023-01-25T04:28:36.021Z,87.16
2023-01-25T04:31:44.434Z,86.35
2023-01-25T04:34:54.810Z,86.19
2023-01-25T04:38:06.329Z,86.69
2023-01-25T04:41:18.964Z,86.99
2023-01-25T04:44:27.217Z,86.59
2023-01-25T04:47:35.935Z,86.76
2023-01-25T04:50:47.712Z,86.64
2023-01-25T04:53:56.488Z,86.23
2023-01-25T04:57:04.988Z,87.21
2023-01-25T05:00:14.533Z,85.83
2023-01-25T05:03:23.072Z,86.95
2023-01-25T05:06:32.967Z,86.43
2023-01-25T05:09:41.320Z,86.39
2023-01-25T05:12:50.466Z,86.60
2023-01-25T05:15:58.768Z,86.63
2023-01-25T05:19:06.993Z,86.78
2023-01-25T05:22:24.176Z,86.75
2023-01-25T05:25:51.868Z,86.65
2023-01-25T05:29:11.389Z,86.42
2023-01-25T05:32:26.848Z,86.97
2023-01-25T05:35:35.098Z,86.86
2023-01-25T05:38:45.094Z,86.61
2023-01-25T05:41:54.681Z,87.65
2023-01-25T05:45:03.073Z,87.20
2023-01-25T05:48:12.104Z,86.61
2023-01-25T05:51:20.780Z,86.60
2023-01-25T05:54:30.712Z,87.00
2023-01-25T05:57:45.283Z,87.31
2023-01-25T06:00:53.550Z,86.84
2023-01-25T06:04:16.882Z,86.74
2023-01-25T06:07:25.256Z,86.42
2023-01-25T06:10:34.940Z,87.22
2023-01-25T06:13:44.005Z,87.13
2023-01-25T06:16:52.432Z,87.20
2023-01-25T06:20:13.895Z,86.45
2023-01-25T06:23:46.769Z,86.43
2023-01-25T06:26:56.430Z,85.83
2023-01-25T06:30:05.560Z,86.54
2023-01-25T06:33:13.802Z,85.78
2023-01-25T06:36:23.662Z,86.21
2023-01-25T06:39:31.859Z,86.27
2023-01-25T06:42:41.652Z,86.76
2023-01-25T06:45:50.067Z,86.40
2023-01-25T06:48:58.307Z,85.65
2023-01-25T06:52:06.570Z,85.58
2023-01-25T06:55:14.842Z,85.16
2023-01-25T06:58:24.527Z,86.37
2023-01-25T07:01:33.566Z,85.72
2023-01-25T07:04:41.814Z,86.43
2023-01-25T07:07:50.031Z,86.23
2023-01-25T07:11:01.446Z,86.28
2023-01-25T07:14:11.041Z,85.76
2023-01-25T07:17:19.334Z,85.25
2023-01-25T07:20:28.696Z,84.87
2023-01-25T07:23:38.009Z,84.64
2023-01-25T07:26:47.500Z,84.55
2023-01-25T07:29:57.011Z,84.15
2023-01-25T07:33:05.333Z,84.78
2023-01-25T07:36:13.828Z,85.10
2023-01-25T07:39:22.136Z,84.88
2023-01-25T07:42:30.342Z,84.36
2023-01-25T07:45:55.408Z,84.03
2023-01-25T07:49:03.669Z,84.10
2023-01-25T07:52:11.858Z,83.64
2023-01-25T07:55:20.202Z,83.80
2023-01-25T07:58:28.372Z,83.65
2023-01-25T08:01:39.004Z,83.16
2023-01-25T08:04:47.365Z,83.39
2023-01-25T08:07:55.659Z,83.61
2023-01-25T08:11:13.104Z,83.17
2023-01-25T08:14:21.491Z,82.80
2023-01-25T08:17:33.225Z,83.80
2023-01-25T08:20:41.630Z,84.34
2023-01-25T08:23:50.019Z,83.75
2023-01-25T08:26:58.266Z,83.83
2023-01-25T08:30:08.340Z,84.17
2023-01-25T08:33:18.232Z,83.72
2023-01-25T08:36:30.590Z,83.46
2023-01-25T08:39:39.115Z,83.87
2023-01-25T08:42:47.881Z,83.00
2023-01-25T08:45:58.527Z,82.59
2023-01-25T08:49:10.766Z,83.09
2023-01-25T08:52:21.804Z,83.11
2023-01-25T08:55:30.371Z,84.67
2023-01-25T08:58:40.726Z,85.35
2023-01-25T09:01:49.156Z,84.71
2023-01-25T09:04:58.922Z,86.19
2023-01-25T09:08:11.223Z,85.48
2023-01-25T09:11:22.175Z,85.19
2023-01-25T09:14:31.721Z,85.37
2023-01-25T09:17:40.113Z,85.34
2023-01-25T09:20:50.112Z,84.63
2023-01-25T09:24:07.521Z,85.26
2023-01-25T09:27:16.366Z,83.75
2023-01-25T09:30:37.348Z,84.96
2023-01-25T09:33:58.590Z,84.72
2023-01-25T09:37:08.501Z,85.00
2023-01-25T09:40:23.828Z,84.57
2023-01-25T09:43:56.787Z,84.25
2023-01-25T09:47:15.550Z,83.77
2023-01-25T09:50:38.315Z,84.16
2023-01-25T09:53:52.519Z,82.49
2023-01-25T09:57:01.288Z,82.56
2023-01-25T10:00:22.668Z,83.02
2023-01-25T10:03:44.309Z,83.01
2023-01-25T10:07:01.254Z,82.92
2023-01-25T10:10:18.531Z,82.57
2023-01-25T10:13:32.650Z,81.97
2023-01-25T10:16:59.375Z,81.38
2023-01-25T10:20:24.121Z,83.10
2023-01-25T10:23:54.213Z,83.63
2023-01-25T10:27:27.317Z,84.43
2023-01-25T10:30:44.310Z,83.86
2023-01-25T10:33:54.368Z,83.97
2023-01-25T10:37:12.462Z,84.83
2023-01-25T10:40:28.581Z,84.89
2023-01-25T10:43:38.379Z,85.41
2023-01-25T10:46:57.810Z,84.85
2023-01-25T10:50:07.166Z,84.42
2023-01-25T10:53:42.178Z,83.16
2023-01-25T10:56:51.389Z,82.19
2023-01-25T11:00:10.550Z,81.65
2023-01-25T11:03:22.753Z,82.76
2023-01-25T11:06:35.998Z,82.78
2023-01-25T11:09:44.134Z,82.90
2023-01-25T11:13:21.103Z,82.75
2023-01-25T11:16:41.815Z,83.91
2023-01-25T11:19:50.005Z,83.48
2023-01-25T11:22:58.826Z,82.76
2023-01-25T11:26:16.797Z,82.21
2023-01-25T11:29:26.399Z,82.21
2023-01-25T11:32:36.577Z,81.35
2023-01-25T11:36:06.630Z,80.18
2023-01-25T11:39:40.557Z,80.04
2023-01-25T11:43:08.792Z,80.17
2023-01-25T11:46:40.509Z,80.41
2023-01-25T11:50:04.958Z,79.74
2023-01-25T11:53:36.148Z,79.53
2023-01-25T11:56:59.025Z,79.41
2023-01-25T12:00:42.672Z,79.20
2023-01-25T12:04:39.593Z,79.03
2023-01-25T12:08:05.450Z,79.44
2023-01-25T12:11:30.271Z,80.01
2023-01-25T12:15:11.045Z,79.97
2023-01-25T12:18:48.284Z,79.77
2023-01-25T12:22:20.075Z,78.79
2023-01-25T12:25:39.350Z,79.54
2023-01-25T12:28:52.997Z,79.14
2023-01-25T12:32:12.326Z,79.77
2023-01-25T12:35:34.202Z,80.11
2023-01-25T12:38:53.957Z,79.26
2023-01-25T12:42:16.303Z,79.85
2023-01-25T12:45:29.185Z,81.46
2023-01-25T12:48:45.422Z,81.17
2023-01-25T12:52:00.406Z,82.18
2023-01-25T12:55:15.895Z,82.76
2023-01-25T12:58:38.574Z,82.61
2023-01-25T13:01:54.766Z,82.92
2023-01-25T13:05:17.906Z,82.54
2023-01-25T13:08:44.804Z,80.82
2023-01-25T13:11:53.257Z,81.52
2023-01-25T13:15:03.020Z,81.70
2023-01-25T13:18:38.230Z,81.98
2023-01-25T13:21:48.998Z,81.98
2023-01-25T13:25:21.328Z,81.33
2023-01-25T13:28:45.780Z,81.44
2023-01-25T13:31:58.830Z,80.99
2023-01-25T13:35:38.304Z,80.89
2023-01-25T13:38:46.571Z,82.26
2023-01-25T13:42:00.902Z,82.39
2023-01-25T13:45:20.855Z,82.56
2023-01-25T13:48:33.128Z,82.42
2023-01-25T13:51:44.018Z,80.84
2023-01-25T13:54:57.601Z,80.83
2023-01-25T13:58:19.493Z,81.43
2023-01-25T14:01:32.349Z,82.19
2023-01-25T14:04:41.958Z,81.33
2023-01-25T14:07:57.206Z,82.47
2023-01-25T14:11:06.931Z,82.40
2023-01-25T14:14:25.298Z,82.79
2023-01-25T14:17:33.692Z,82.16
2023-01-25T14:20:44.696Z,82.91
2023-01-25T14:23:53.298Z,82.38
2023-01-25T14:27:01.558Z,82.43
2023-01-25T14:30:21.870Z,82.54
2023-01-25T14:33:35.669Z,81.22
2023-01-25T14:36:45.439Z,81.93
2023-01-25T14:39:54.193Z,81.64
2023-01-25T14:43:03.256Z,81.69
2023-01-25T14:46:32.689Z,81.47
2023-01-25T14:49:41.071Z,81.46
2023-01-25T14:52:51.104Z,80.42
2023-01-25T14:56:00.174Z,81.43
2023-01-25T14:59:23.806Z,81.73
2023-01-25T15:02:40.471Z,81.44
2023-01-25T15:05:50.016Z,81.92
2023-01-25T15:08:59.607Z,81.80
2023-01-25T15:12:29.758Z,81.60
2023-01-25T15:15:50.549Z,80.39
2023-01-25T15:18:58.788Z,80.67
2023-01-25T15:22:10.230Z,81.41
2023-01-25T15:25:24.514Z,81.76
2023-01-25T15:28:34.452Z,82.84
2023-01-25T15:31:43.495Z,82.39
2023-01-25T15:34:52.065Z,83.56
2023-01-25T15:38:00.335Z,82.67
2023-01-25T15:41:11.111Z,82.81
2023-01-25T15:44:20.555Z,82.48
2023-01-25T15:47:29.044Z,82.11
2023-01-25T15:50:37.552Z,82.89
2023-01-25T15:53:46.839Z,82.79
2023-01-25T15:57:00.302Z,82.98
2023-01-25T16:00:18.425Z,82.76
2023-01-25T16:03:26.634Z,82.49
2023-01-25T16:06:41.999Z,83.25
2023-01-25T16:09:50.243Z,83.03
2023-01-25T16:12:59.945Z,83.56
2023-01-25T16:16:19.831Z,82.59
2023-01-25T16:19:29.744Z,82.12
2023-01-25T16:22:38.106Z,82.69
2023-01-25T16:25:49.861Z,83.26
2023-01-25T16:28:59.318Z,83.44
2023-01-25T16:32:07.935Z,83.90
2023-01-25T16:35:16.239Z,82.92
2023-01-25T16:38:25.494Z,84.21
2023-01-25T16:41:34.479Z,83.96
2023-01-25T16:44:45.161Z,84.70
2023-01-25T16:47:53.803Z,84.41
2023-01-25T16:51:02.418Z,85.16
2023-01-25T16:54:13.029Z,84.30
2023-01-25T16:57:21.242Z,84.23
2023-01-25T17:00:30.781Z,84.38
2023-01-25T17:03:39.215Z,83.43
2023-01-25T17:06:50.647Z,83.37
2023-01-25T17:09:58.994Z,84.02
2023-01-25T17:13:08.690Z,83.34
2023-01-25T17:16:18.903Z,83.32
2023-01-25T17:19:27.122Z,83.07
2023-01-25T17:22:37.483Z,82.60
2023-01-25T17:25:45.683Z,82.68
2023-01-25T17:28:55.826Z,82.32
2023-01-25T17:32:05.586Z,82.58
2023-01-25T17:35:13.739Z,82.66
2023-01-25T17:38:22.126Z,83.46
2023-01-25T17:41:30.523Z,83.81
2023-01-25T17:44:38.783Z,83.05
2023-01-25T17:47:48.262Z,83.80
2023-01-25T17:51:05.936Z,83.39
2023-01-25T17:54:15.052Z,83.06
2023-01-25T17:57:24.008Z,83.69
2023-01-25T18:00:32.642Z,83.72
2023-01-25T18:03:42.750Z,83.49
2023-01-25T18:06:50.971Z,84.21
2023-01-25T18:09:59.177Z,84.70
2023-01-25T18:13:07.927Z,84.11
2023-01-25T18:16:18.762Z,83.68
2023-01-25T18:19:31.140Z,83.72
2023-01-25T18:22:39.431Z,83.30
2023-01-25T18:25:47.633Z,82.97
2023-01-25T18:29:00.843Z,84.32
2023-01-25T18:32:09.212Z,83.34
2023-01-25T18:35:18.903Z,82.89
2023-01-25T18:38:28.127Z,83.06
2023-01-25T18:41:36.791Z,82.99
2023-01-25T18:44:48.204Z,83.17
2023-01-25T18:47:56.477Z,82.82
2023-01-25T18:51:09.924Z,82.76
2023-01-25T18:54:18.028Z,82.42
2023-01-25T18:57:26.237Z,82.67
2023-01-25T19:00:35.905Z,83.32
2023-01-25T19:03:45.462Z,82.46
2023-01-25T19:06:57.469Z,83.18
2023-01-25T19:10:06.787Z,83.56
2023-01-25T19:13:15.314Z,83.52
2023-01-25T19:16:25.185Z,83.24
2023-01-25T19:19:34.118Z,82.92
2023-01-25T19:22:44.742Z,82.67
2023-01-25T19:25:56.945Z,82.96
2023-01-25T19:29:05.890Z,82.12
2023-01-25T19:32:14.294Z,82.17
2023-01-25T19:35:22.746Z,82.03
2023-01-25T19:38:33.477Z,81.99
2023-01-25T19:41:41.856Z,82.61
2023-01-25T19:44:50.069Z,82.54
2023-01-25T19:47:58.383Z,82.60
2023-01-25T19:51:12.285Z,82.62
2023-01-25T19:54:24.268Z,81.99
2023-01-25T19:57:33.464Z,82.50
2023-01-25T20:00:41.694Z,82.01
2023-01-25T20:03:51.302Z,82.71
2023-01-25T20:06:59.513Z,82.62
2023-01-25T20:10:11.703Z,82.58
2023-01-25T20:13:19.996Z,83.35
2023-01-25T20:16:30.446Z,82.91
2023-01-25T20:19:38.774Z,82.49
2023-01-25T20:22:49.228Z,82.87
2023-01-25T20:26:00.245Z,83.08
2023-01-25T20:29:10.086Z,82.55
2023-01-25T20:32:31.768Z,82.95
2023-01-25T20:35:41.096Z,83.20
2023-01-25T20:38:49.469Z,83.35
2023-01-25T20:41:59.079Z,82.85
2023-01-25T20:45:11.415Z,83.14
2023-01-25T20:48:21.769Z,82.95
2023-01-25T20:51:30.023Z,82.92
2023-01-25T20:54:38.266Z,82.55
2023-01-25T20:57:47.839Z,82.92
2023-01-25T21:00:56.773Z,81.86
2023-01-25T21:04:09.560Z,82.66
2023-01-25T21:07:17.977Z,82.78
2023-01-25T21:10:26.755Z,83.39
2023-01-25T21:13:36.720Z,82.31
2023-01-25T21:16:44.967Z,82.59
2023-01-25T21:19:53.134Z,82.08
2023-01-25T21:23:01.393Z,82.50
2023-01-25T21:26:15.040Z,83.94
2023-01-25T21:29:25.263Z,83.47
2023-01-25T21:32:33.527Z,83.23
2023-01-25T21:35:41.718Z,83.45
2023-01-25T21:38:52.588Z,83.62
2023-01-25T21:42:00.775Z,83.82
2023-01-25T21:45:30.040Z,84.32
2023-01-25T21:48:55.720Z,82.97
2023-01-25T21:52:03.899Z,82.76
2023-01-25T21:55:12.066Z,81.67
2023-01-25T21:58:20.216Z,82.09
2023-01-25T22:01:29.849Z,82.51
2023-01-25T22:04:39.209Z,83.66
2023-01-25T22:07:47.453Z,82.75
2023-01-25T22:11:02.882Z,83.87
2023-01-25T22:14:11.104Z,82.40
2023-01-25T22:17:22.531Z,82.85
2023-01-25T22:20:30.726Z,82.88
2023-01-25T22:23:38.914Z,82.84
2023-01-25T22:27:04.367Z,82.87
2023-01-25T22:30:14.011Z,82.81
2023-01-25T22:33:23.992Z,83.43
2023-01-25T22:36:33.201Z,83.38
2023-01-25T22:39:41.420Z,83.56
2023-01-25T22:42:49.625Z,84.02
2023-01-25T22:45:57.812Z,83.24
2023-01-25T22:49:10.772Z,82.56
2023-01-25T22:52:18.983Z,83.75
2023-01-25T22:55:27.592Z,82.92
2023-01-25T22:58:38.365Z,83.18
2023-01-25T23:01:47.381Z,83.35
2023-01-25T23:04:57.716Z,82.35
2023-01-25T23:08:06.507Z,83.40
2023-01-25T23:11:18.826Z,83.31
2023-01-25T23:14:44.519Z,82.52
2023-01-25T23:18:10.254Z,82.49
2023-01-25T23:21:23.667Z,82.91
2023-01-25T23:24:32.260Z,82.72
2023-01-25T23:27:41.105Z,81.92
2023-01-25T23:30:49.599Z,82.47
2023-01-25T23:34:01.115Z,82.47
2023-01-25T23:37:10.836Z,82.25
2023-01-25T23:40:19.541Z,81.78
2023-01-25T23:43:28.055Z,82.33
2023-01-25T23:46:36.530Z,81.58
2023-01-25T23:49:45.000Z,80.91
2023-01-25T23:52:54.881Z,81.58
2023-01-25T23:56:06.449Z,82.29
2023-01-25T23:59:15.089Z,82.39
